createdAt,value
2022-11-24T00:09:48.825Z,-6.80
2022-11-24T00:19:55.987Z,-6.85
2022-11-24T00:29:59.793Z,-6.87
2022-11-24T00:40:05.287Z,-6.91
2022-11-24T00:50:09.225Z,-6.92
2022-11-24T01:00:14.797Z,-6.94
2022-11-24T01:10:18.072Z,-6.95
2022-11-24T01:20:22.899Z,-6.96
2022-11-24T01:30:25.918Z,-6.99
2022-11-24T01:40:30.583Z,-7.00
2022-11-24T01:50:36.035Z,-7.01
2022-11-24T02:00:44.232Z,-7.02
2022-11-24T02:10:50.837Z,-7.03
2022-11-24T02:20:56.371Z,-7.05
2022-11-24T02:31:02.485Z,-7.06
2022-11-24T02:41:10.339Z,-7.07
2022-11-24T02:51:18.005Z,-7.08
2022-11-24T03:01:21.083Z,-7.09
2022-11-24T03:11:25.594Z,-7.10
2022-11-24T03:21:28.721Z,-7.11
2022-11-24T03:31:33.273Z,-7.13
2022-11-24T03:41:36.530Z,-7.13
2022-11-24T03:51:41.226Z,-7.14
2022-11-24T04:01:44.351Z,-7.14
2022-11-24T04:12:07.226Z,-7.17
2022-11-24T04:22:10.156Z,-7.17
2022-11-24T04:32:20.492Z,-7.18
2022-11-24T04:42:26.622Z,-7.17
2022-11-24T04:52:31.367Z,-7.17
2022-11-24T05:02:34.286Z,-7.17
2022-11-24T05:12:39.794Z,-7.17
2022-11-24T05:22:45.821Z,-7.16
2022-11-24T05:32:50.169Z,-7.18
2022-11-24T05:42:53.182Z,-7.18
2022-11-24T05:52:57.556Z,-7.18
2022-11-24T06:03:01.559Z,-7.20
2022-11-24T06:13:08.147Z,-7.19
2022-11-24T06:23:11.287Z,-7.19
2022-11-24T06:33:18.060Z,-7.17
2022-11-24T06:43:46.845Z,-7.13
2022-11-24T06:54:12.168Z,-7.13
2022-11-24T07:04:20.718Z,-7.13
2022-11-24T07:14:28.885Z,-7.14
2022-11-24T07:24:35.315Z,-7.14
2022-11-24T07:34:40.230Z,-7.11
2022-11-24T07:44:45.786Z,-7.09
2022-11-24T07:54:51.185Z,-7.08
2022-11-24T08:04:55.035Z,-7.04
2022-11-24T08:15:20.422Z,-7.09
2022-11-24T08:25:31.854Z,-7.13
2022-11-24T08:35:38.451Z,-7.09
2022-11-24T08:45:43.950Z,-7.06
2022-11-24T08:56:08.134Z,-7.01
2022-11-24T09:06:11.425Z,-6.97
2022-11-24T09:16:17.582Z,-6.93
2022-11-24T09:26:22.192Z,-6.88
2022-11-24T09:36:28.382Z,-6.84
2022-11-24T09:46:41.238Z,-6.82
2022-11-24T09:56:49.650Z,-6.77
2022-11-24T10:07:08.407Z,-6.80
2022-11-24T10:17:29.634Z,-6.78
2022-11-24T10:27:44.917Z,-6.77
2022-11-24T10:38:01.068Z,-6.81
2022-11-24T10:48:06.404Z,-6.76
2022-11-24T10:58:18.711Z,-6.75
2022-11-24T11:08:29.175Z,-6.74
2022-11-24T11:18:37.286Z,-6.70
2022-11-24T11:40:44.429Z,-6.67
2022-11-24T11:51:22.224Z,-6.69
2022-11-24T12:01:58.544Z,-6.66
2022-11-24T12:12:20.561Z,-6.65
2022-11-24T12:22:51.968Z,-6.68
2022-11-24T12:33:22.934Z,-6.66
2022-11-24T12:43:34.019Z,-6.69
2022-11-24T12:53:41.056Z,-6.70
2022-11-24T13:04:00.750Z,-6.68
2022-11-24T13:14:07.202Z,-6.69
2022-11-24T13:24:23.668Z,-6.67
2022-11-24T13:34:57.717Z,-6.65
2022-11-24T13:45:30.031Z,-6.65
2022-11-24T13:55:38.116Z,-6.65
2022-11-24T14:05:49.260Z,-6.64
2022-11-24T14:16:00.391Z,-6.65
2022-11-24T14:26:11.288Z,-6.65
2022-11-24T14:36:15.640Z,-6.64
2022-11-24T14:46:22.817Z,-6.63
2022-11-24T14:56:29.221Z,-6.61
2022-11-24T15:06:36.771Z,-6.61
2022-11-24T15:16:42.118Z,-6.59
2022-11-24T15:27:11.076Z,-6.58
2022-11-24T15:37:14.044Z,-6.56
2022-11-24T15:47:18.585Z,-6.53
2022-11-24T15:57:21.808Z,-6.52
2022-11-24T16:07:27.664Z,-6.51
2022-11-24T16:17:37.482Z,-6.50
2022-11-24T16:27:42.487Z,-6.48
2022-11-24T16:37:50.438Z,-6.48
2022-11-24T16:47:57.822Z,-6.46
2022-11-24T16:58:05.500Z,-6.45
2022-11-24T17:08:10.045Z,-6.44
2022-11-24T17:18:30.924Z,-6.43
2022-11-24T17:28:35.726Z,-6.45
2022-11-24T17:38:38.745Z,-6.44
2022-11-24T17:48:48.170Z,-6.43
2022-11-24T17:58:54.567Z,-6.43
2022-11-24T18:09:04.107Z,-6.44
2022-11-24T18:19:11.238Z,-6.44
2022-11-24T18:29:18.605Z,-6.48
2022-11-24T18:39:21.370Z,-6.47
2022-11-24T18:49:25.656Z,-6.46
2022-11-24T18:59:28.664Z,-6.45
2022-11-24T19:09:32.966Z,-6.45
2022-11-24T19:19:36.223Z,-6.44
2022-11-24T19:29:43.187Z,-6.43
2022-11-24T19:39:46.142Z,-6.43
2022-11-24T19:49:51.312Z,-6.43
2022-11-24T19:59:54.239Z,-6.43
2022-11-24T20:10:00.788Z,-6.44
2022-11-24T20:20:10.559Z,-6.44
2022-11-24T20:30:14.877Z,-6.43
2022-11-24T20:40:19.436Z,-6.44
2022-11-24T20:50:24.202Z,-6.44
2022-11-24T21:00:27.315Z,-6.45
2022-11-24T21:10:31.777Z,-6.47
2022-11-24T21:20:34.718Z,-6.48
2022-11-24T21:30:41.400Z,-6.49
2022-11-24T21:40:50.003Z,-6.49
2022-11-24T21:50:54.565Z,-6.50
2022-11-24T22:01:02.822Z,-6.50
2022-11-24T22:11:11.459Z,-6.52
2022-11-24T22:21:15.841Z,-6.52
2022-11-24T22:31:23.776Z,-6.53
2022-11-24T22:41:26.791Z,-6.57
2022-11-24T22:51:34.823Z,-6.57
2022-11-24T23:01:37.710Z,-6.57
2022-11-24T23:11:42.231Z,-6.56
2022-11-24T23:21:45.213Z,-6.55
2022-11-24T23:31:49.920Z,-6.54
2022-11-24T23:41:52.965Z,-6.52
2022-11-24T23:51:57.511Z,-6.52
